Terminal Aerodrome Forecast
Issued by NWS Goodland, KS

Home | Current Version | Previous Version | Text Only | Print | Product List | Glossary On
Versions: 1 2 3 4 5 6 7 8 9 10 11 12 13 14 15 16 17 18 19 20 21 22 23
000
FTUS43 KGLD 220520
TAFGLD
TAF
KGLD 220520Z 2206/2306 15010KT P6SM SCT025 OVC035 WS020/14035KT
      TEMPO 2206/2209 5SM -SHRA OVC025
     FM220900 15012G20KT 2SM SHRA BR OVC006
     FM221600 15015G25KT 3SM -SHRA BR OVC010
     FM222100 16020G30KT 4SM -SHRA BR OVC012
     FM230100 16020G30KT 6SM -SHRA BR OVC018=

USA.gov is the U.S. government's official web portal to all federal, state and local government web resources and services.